Time;durP1;ratioP1;P1;durP2;ratioP2;P2;SDS_P1;SDS_P2;PMS_P1;PMS_P2;Temp;Humidity;BMP_temperature;BMP_pressure;BME280_temperature;BME280_humidity;BME280_pressure;Samples;Min_cycle;Max_cycle;Signal;HPM_P1;HPM_P2
2022/11/20 00:00:45;;;;;;;;;;;;;;;-1.20;100.00;101156.69;2064729;28;36322;-67
2022/11/20 00:01:46;;;;;;;;;;;;;;;-1.21;100.00;101154.88;2064594;28;29202;-66
2022/11/20 00:02:48;;;;;;;;;;;;;;;-1.20;100.00;101156.69;2065145;28;36597;-65
2022/11/20 00:03:51;;;;;;;;;;;;;;;-1.20;100.00;101151.44;2064743;28;30130;-66
2022/11/20 00:04:53;;;;;;;;;;;;;;;-1.18;100.00;101157.59;2064396;28;33765;-66
2022/11/20 00:06:01;;;;;;;;;;;;;;;-1.17;100.00;101154.16;2065076;28;20740;-66
2022/11/20 00:07:03;;;;;;;;;;;;;;;-1.16;100.00;101155.03;2064863;28;36256;-66
2022/11/20 00:08:05;;;;;;;;;;;;;;;-1.17;100.00;101151.53;2064661;28;37149;-65
2022/11/20 00:09:09;;;;;;;;;;;;;;;-1.16;100.00;101158.53;2064457;28;33933;-65
2022/11/20 00:10:11;;;;;;;;;;;;;;;-1.15;100.00;101154.16;2064480;28;35603;-66
2022/11/20 00:11:16;;;;;;;;;;;;;;;-1.14;100.00;101152.44;2064569;28;36859;-67
2022/11/20 00:12:17;;;;;;;;;;;;;;;-1.14;100.00;101155.97;2065077;28;20036;-67
2022/11/20 00:13:19;;;;;;;;;;;;;;;-1.13;100.00;101154.22;2064195;28;28058;-66
2022/11/20 00:14:20;;;;;;;;;;;;;;;-1.10;100.00;101159.56;2064807;28;31376;-67
2022/11/20 00:15:22;;;;;;;;;;;;;;;-1.11;100.00;101155.13;2064822;28;37366;-67
2022/11/20 00:16:25;;;;;;;;;;;;;;;-1.11;100.00;101155.13;2064154;28;40865;-68
2022/11/20 00:17:29;;;;;;;;;;;;;;;-1.10;100.00;101149.94;2065117;28;20076;-67
2022/11/20 00:18:33;;;;;;;;;;;;;;;-1.10;100.00;101151.69;2065056;28;19985;-68
2022/11/20 00:19:34;;;;;;;;;;;;;;;-1.11;100.00;101142.00;2064496;28;32824;-68
2022/11/20 00:20:36;;;;;;;;;;;;;;;-1.11;100.00;101144.63;2065393;28;19922;-66
2022/11/20 00:21:38;;;;;;;;;;;;;;;-1.09;100.00;101150.84;2064254;28;36596;-68
2022/11/20 00:22:39;;;;;;;;;;;;;;;-1.10;100.00;101149.94;2064238;28;32520;-68
2022/11/20 00:23:44;;;;;;;;;;;;;;;-1.08;100.00;101144.72;2065153;28;19930;-69
2022/11/20 00:24:45;;;;;;;;;;;;;;;-1.09;100.00;101142.97;2064319;28;37803;-67
2022/11/20 00:25:47;;;;;;;;;;;;;;;-1.08;100.00;101139.47;2064921;28;26682;-68
2022/11/20 00:26:51;;;;;;;;;;;;;;;-1.09;100.00;101140.34;2064571;28;31360;-67
2022/11/20 00:27:52;;;;;;;;;;;;;;;-1.08;100.00;101144.72;2064990;28;20275;-68
2022/11/20 00:28:58;;;;;;;;;;;;;;;-1.08;100.00;101144.72;2066600;28;35414;-68
2022/11/20 00:30:02;;;;;;;;;;;;;;;-1.08;100.00;101140.34;2064541;28;39274;-68
2022/11/20 00:31:14;;;;;;;;;;;;;;;-1.09;100.00;101141.22;2065130;28;19922;-68
2022/11/20 00:32:16;;;;;;;;;;;;;;;-1.08;100.00;101145.59;2064778;28;28161;-68
2022/11/20 00:33:17;;;;;;;;;;;;;;;-1.07;100.00;101141.25;2064387;28;26582;-67
2022/11/20 00:34:19;;;;;;;;;;;;;;;-1.06;100.00;101148.28;2064406;28;19926;-68
2022/11/20 00:35:20;;;;;;;;;;;;;;;-1.07;100.00;101141.25;2064159;28;36621;-69
2022/11/20 00:36:25;;;;;;;;;;;;;;;-1.06;100.00;101137.78;2064268;28;32515;-68
2022/11/20 00:37:26;;;;;;;;;;;;;;;-1.07;100.00;101150.03;2064445;28;32640;-68
2022/11/20 00:38:28;;;;;;;;;;;;;;;-1.06;100.00;101145.66;2064089;28;35636;-69
2022/11/20 00:39:30;;;;;;;;;;;;;;;-1.06;100.00;101140.41;2064786;28;29646;-68
2022/11/20 00:40:34;;;;;;;;;;;;;;;-1.06;100.00;101143.94;2064591;28;32153;-68
2022/11/20 00:41:35;;;;;;;;;;;;;;;-1.04;100.00;101138.69;2064397;28;40350;-68
2022/11/20 00:42:37;;;;;;;;;;;;;;;-1.04;100.00;101146.56;2064985;28;19921;-68
2022/11/20 00:43:38;;;;;;;;;;;;;;;-1.03;100.00;101146.63;2064512;28;34060;-69
2022/11/20 00:44:40;;;;;;;;;;;;;;;-1.02;100.00;101142.28;2064655;28;31510;-68
2022/11/20 00:45:41;;;;;;;;;;;;;;;-1.02;100.00;101144.91;2064275;28;37526;-69
2022/11/20 00:46:43;;;;;;;;;;;;;;;-1.02;100.00;101139.66;2064367;28;39223;-68
2022/11/20 00:47:44;;;;;;;;;;;;;;;-1.02;100.00;101137.03;2064291;28;35352;-69
2022/11/20 00:48:47;;;;;;;;;;;;;;;-1.01;100.00;101144.03;2064399;28;35845;-68
2022/11/20 00:49:51;;;;;;;;;;;;;;;-1.02;100.00;101140.53;2064313;28;34142;-68
2022/11/20 00:50:53;;;;;;;;;;;;;;;-1.01;100.00;101139.66;2065092;28;19914;-68
2022/11/20 00:51:55;;;;;;;;;;;;;;;-0.99;100.00;101150.22;2064250;28;36484;-68
2022/11/20 00:52:56;;;;;;;;;;;;;;;-1.00;100.00;101145.84;2064533;28;28427;-68
2022/11/20 00:53:59;;;;;;;;;;;;;;;-0.99;100.00;101137.09;2064136;28;31893;-69
2022/11/20 00:55:01;;;;;;;;;;;;;;;-0.99;100.00;101140.63;2064548;28;36176;-68
2022/11/20 00:56:06;;;;;;;;;;;;;;;-0.98;100.00;101141.50;2063336;28;40177;-68
2022/11/20 00:57:07;;;;;;;;;;;;;;;-0.98;100.00;101141.50;2064516;28;24038;-68
2022/11/20 00:58:09;;;;;;;;;;;;;;;-0.97;100.00;101135.38;2064286;28;27569;-68
2022/11/20 00:59:19;;;;;;;;;;;;;;;-0.98;100.00;101136.25;2066258;28;19930;-69
2022/11/20 01:00:21;;;;;;;;;;;;;;;-0.98;100.00;101137.13;2064125;28;33922;-68
2022/11/20 01:01:25;;;;;;;;;;;;;;;-0.97;100.00;101140.66;2064125;28;32396;-69
2022/11/20 01:02:27;;;;;;;;;;;;;;;-0.97;100.00;101138.94;2064456;28;37473;-69
2022/11/20 01:03:31;;;;;;;;;;;;;;;-0.97;100.00;101132.75;2064236;28;32183;-69
2022/11/20 01:04:33;;;;;;;;;;;;;;;-0.95;100.00;101136.34;2056076;28;32518;-69
2022/11/20 01:05:35;;;;;;;;;;;;;;;-0.94;100.00;101135.47;2056041;28;35042;-68
2022/11/20 01:06:39;;;;;;;;;;;;;;;-0.95;100.00;101136.34;2056518;28;19938;-68
2022/11/20 01:07:43;;;;;;;;;;;;;;;-0.96;100.00;101142.44;2056122;28;38159;-69
2022/11/20 01:08:45;;;;;;;;;;;;;;;-0.95;100.00;101138.97;2055913;28;37556;-68
2022/11/20 01:09:47;;;;;;;;;;;;;;;-0.92;100.00;101138.16;2056470;28;36387;-68
2022/11/20 01:10:48;;;;;;;;;;;;;;;-0.92;100.00;101133.78;2055898;28;37548;-68
2022/11/20 01:11:52;;;;;;;;;;;;;;;-0.92;100.00;101136.41;2056783;28;19931;-68
2022/11/20 01:14:20;;;;;;;;;;;;;;;-0.90;100.00;101142.59;2056213;28;38942;-68
2022/11/20 01:15:22;;;;;;;;;;;;;;;-0.89;100.00;101146.13;2056673;28;28051;-68
2022/11/20 01:16:26;;;;;;;;;;;;;;;-0.90;100.00;101139.09;2056216;28;24971;-70
2022/11/20 01:17:28;;;;;;;;;;;;;;;-0.90;100.00;101144.34;2056311;28;37264;-70
2022/11/20 01:18:29;;;;;;;;;;;;;;;-0.90;100.00;101144.34;2055948;28;36331;-69
2022/11/20 01:19:31;;;;;;;;;;;;;;;-0.89;100.00;101140.88;2063990;28;31056;-69
2022/11/20 01:20:36;;;;;;;;;;;;;;;-0.90;100.00;101139.97;2063175;28;38881;-70
2022/11/20 01:21:40;;;;;;;;;;;;;;;-0.90;100.00;101137.34;2056799;28;19929;-66
2022/11/20 01:22:42;;;;;;;;;;;;;;;-0.89;100.00;101136.50;2055717;28;37228;-68
2022/11/20 01:23:44;;;;;;;;;;;;;;;-0.89;100.00;101141.75;2056764;28;34048;-68
2022/11/20 01:24:46;;;;;;;;;;;;;;;-0.89;100.00;101136.50;2055970;28;36311;-68
2022/11/20 01:25:47;;;;;;;;;;;;;;;-0.88;100.00;101130.41;2056025;28;37739;-68
2022/11/20 01:26:50;;;;;;;;;;;;;;;-0.88;100.00;101126.88;2055912;28;37482;-69
2022/11/20 01:27:52;;;;;;;;;;;;;;;-0.88;100.00;101129.50;2056254;28;31528;-69
2022/11/20 01:28:55;;;;;;;;;;;;;;;-0.86;100.00;101133.97;2055547;28;35893;-69
2022/11/20 01:29:56;;;;;;;;;;;;;;;-0.86;100.00;101130.41;2056952;28;32727;-67
2022/11/20 01:31:29;;;;;;;;;;;;;;;-0.86;100.00;101127.78;2063097;28;41958;-69
2022/11/20 01:32:32;;;;;;;;;;;;;;;-0.85;100.00;101132.22;2060349;28;20704;-69
2022/11/20 01:33:34;;;;;;;;;;;;;;;-0.88;100.00;101125.16;2056576;28;39977;-69
2022/11/20 01:34:38;;;;;;;;;;;;;;;-0.86;100.00;101127.78;2064238;28;38095;-69
2022/11/20 01:35:40;;;;;;;;;;;;;;;-0.88;100.00;101125.16;2063295;28;35613;-70
2022/11/20 01:36:42;;;;;;;;;;;;;;;-0.88;100.00;101122.53;2063876;28;33817;-69
2022/11/20 01:37:43;;;;;;;;;;;;;;;-0.87;100.00;101123.41;2064053;28;31565;-69
2022/11/20 01:38:45;;;;;;;;;;;;;;;-0.88;100.00;101127.78;2064302;28;35883;-69
2022/11/20 01:39:47;;;;;;;;;;;;;;;-0.86;100.00;101120.81;2063843;28;38693;-69
2022/11/20 01:40:55;;;;;;;;;;;;;;;-0.86;100.00;101115.56;2064137;28;30474;-69
2022/11/20 01:43:22;;;;;;;;;;;;;;;-0.88;100.00;101113.72;2064047;28;33793;-69
2022/11/20 01:44:47;;;;;;;;;;;;;;;-0.88;100.00;101113.72;2065132;28;19934;-69
2022/11/20 01:45:54;;;;;;;;;;;;;;;-0.87;100.00;101118.16;2064703;28;19918;-69
2022/11/20 01:46:58;;;;;;;;;;;;;;;-0.88;100.00;101105.84;2064318;28;40492;-69
2022/11/20 01:48:02;;;;;;;;;;;;;;;-0.89;100.00;101104.97;2063643;28;33639;-69
2022/11/20 01:49:16;;;;;;;;;;;;;;;-0.88;100.00;101109.38;2063855;28;37691;-69
2022/11/20 01:50:24;;;;;;;;;;;;;;;-0.88;100.00;101112.00;2064281;28;33749;-69
2022/11/20 01:51:33;;;;;;;;;;;;;;;-0.87;100.00;101107.63;2063545;28;37661;-70
2022/11/20 01:52:41;;;;;;;;;;;;;;;-0.88;100.00;101114.63;2063887;28;32594;-69
2022/11/20 01:53:43;;;;;;;;;;;;;;;-0.88;100.00;101112.00;2064101;28;30592;-69
2022/11/20 01:55:06;;;;;;;;;;;;;;;-0.87;100.00;101102.38;2063816;28;35521;-68
2022/11/20 01:56:11;;;;;;;;;;;;;;;-0.87;100.00;101105.00;2064087;28;34689;-70
2022/11/20 01:57:14;;;;;;;;;;;;;;;-0.87;100.00;101105.88;2064110;28;37077;-69
2022/11/20 01:58:21;;;;;;;;;;;;;;;-0.87;100.00;101105.88;2064229;28;21077;-69
2022/11/20 01:59:26;;;;;;;;;;;;;;;-0.87;100.00;101099.75;2064534;28;19918;-69
2022/11/20 02:00:27;;;;;;;;;;;;;;;-0.88;100.00;101101.50;2064509;28;19918;-70
2022/11/20 02:01:29;;;;;;;;;;;;;;;-0.87;100.00;101098.00;2063871;28;28398;-69
2022/11/20 02:02:32;;;;;;;;;;;;;;;-0.88;100.00;101096.25;2063960;28;36933;-69
2022/11/20 02:03:33;;;;;;;;;;;;;;;-0.88;100.00;101097.97;2062960;28;35908;-69
2022/11/20 02:04:37;;;;;;;;;;;;;;;-0.88;100.00;101101.50;2062860;28;32433;-69
2022/11/20 02:06:04;;;;;;;;;;;;;;;-0.89;100.00;101091.81;2063932;28;34525;-69
2022/11/20 02:07:07;;;;;;;;;;;;;;;-0.86;100.00;101096.25;2063077;28;37161;-69
2022/11/20 02:08:09;;;;;;;;;;;;;;;-0.85;100.00;101098.03;2063020;28;34620;-68
2022/11/20 02:09:11;;;;;;;;;;;;;;;-0.87;100.00;101092.75;2064509;28;19922;-69
2022/11/20 02:10:13;;;;;;;;;;;;;;;-0.87;100.00;101092.75;2063667;28;32578;-68
2022/11/20 02:11:14;;;;;;;;;;;;;;;-0.87;100.00;101087.47;2063659;28;36387;-69
2022/11/20 02:13:45;;;;;;;;;;;;;;;-0.88;100.00;101080.47;2064270;28;33855;-70
2022/11/20 02:14:47;;;;;;;;;;;;;;;-0.87;100.00;101081.34;2063936;28;27652;-70
2022/11/20 02:15:49;;;;;;;;;;;;;;;-0.86;100.00;101081.41;2064213;28;32151;-69
2022/11/20 02:16:51;;;;;;;;;;;;;;;-0.86;100.00;101077.84;2064011;28;25734;-70
2022/11/20 02:17:53;;;;;;;;;;;;;;;-0.87;100.00;101079.59;2064313;28;22841;-70
2022/11/20 02:18:58;;;;;;;;;;;;;;;-0.87;100.00;101082.22;2063817;28;32110;-69
2022/11/20 02:20:00;;;;;;;;;;;;;;;-0.87;100.00;101082.22;2064610;28;19933;-70
2022/11/20 02:21:09;;;;;;;;;;;;;;;-0.88;100.00;101080.47;2063822;28;33303;-68
2022/11/20 02:22:13;;;;;;;;;;;;;;;-0.87;100.00;101082.22;2063699;28;32798;-69
2022/11/20 02:23:27;;;;;;;;;;;;;;;-0.87;100.00;101076.97;2063430;28;37358;-70
2022/11/20 02:24:28;;;;;;;;;;;;;;;-0.87;100.00;101079.59;2063906;28;38561;-69
2022/11/20 02:25:35;;;;;;;;;;;;;;;-0.87;100.00;101076.09;2063235;28;38063;-70
2022/11/20 02:26:44;;;;;;;;;;;;;;;-0.86;100.00;101067.34;2064586;28;20517;-70
2022/11/20 02:27:46;;;;;;;;;;;;;;;-0.86;100.00;101072.59;2063539;28;36341;-70
2022/11/20 02:28:48;;;;;;;;;;;;;;;-0.86;100.00;101078.75;2063994;28;27566;-70
2022/11/20 02:29:57;;;;;;;;;;;;;;;-0.85;100.00;101074.38;2063462;28;34985;-70
2022/11/20 02:30:59;;;;;;;;;;;;;;;-0.84;100.00;101082.31;2063611;28;36531;-70
2022/11/20 02:32:01;;;;;;;;;;;;;;;-0.85;100.00;101072.63;2064237;28;19929;-70
2022/11/20 02:33:03;;;;;;;;;;;;;;;-0.84;100.00;101077.06;2063609;28;35740;-67
2022/11/20 02:34:05;;;;;;;;;;;;;;;-0.85;100.00;101075.25;2063462;28;37689;-69
2022/11/20 02:35:29;;;;;;;;;;;;;;;-0.81;100.00;101078.88;2064551;28;19922;-68
2022/11/20 02:36:33;;;;;;;;;;;;;;;-0.84;100.00;101082.31;2063221;28;34715;-69
2022/11/20 02:37:40;;;;;;;;;;;;;;;-0.84;100.00;101079.69;2063115;28;41443;-70
2022/11/20 02:38:43;;;;;;;;;;;;;;;-0.84;100.00;101077.06;2064078;28;35380;-69
2022/11/20 02:39:47;;;;;;;;;;;;;;;-0.83;100.00;101077.94;2063425;28;38797;-69
2022/11/20 02:40:49;;;;;;;;;;;;;;;-0.83;100.00;101072.69;2064202;28;31083;-69
2022/11/20 02:41:56;;;;;;;;;;;;;;;-0.81;100.00;101081.50;2063898;28;34469;-69
2022/11/20 02:42:58;;;;;;;;;;;;;;;-0.84;100.00;101077.06;2064656;28;19922;-70
2022/11/20 02:44:00;;;;;;;;;;;;;;;-0.82;100.00;101077.09;2064243;28;27985;-69
2022/11/20 02:45:01;;;;;;;;;;;;;;;-0.82;100.00;101075.34;2064078;28;36770;-69
2022/11/20 02:46:06;;;;;;;;;;;;;;;-0.81;100.00;101065.72;2063489;28;33982;-70
2022/11/20 02:47:08;;;;;;;;;;;;;;;-0.81;100.00;101071.88;2063524;28;38166;-70
2022/11/20 02:48:10;;;;;;;;;;;;;;;-0.81;100.00;101069.25;2064142;28;19933;-70
2022/11/20 02:49:12;;;;;;;;;;;;;;;-0.81;100.00;101064.00;2063914;28;34504;-69
2022/11/20 02:50:16;;;;;;;;;;;;;;;-0.81;100.00;101064.00;2063470;28;33365;-69
2022/11/20 02:51:20;;;;;;;;;;;;;;;-0.81;100.00;101061.38;2063642;28;34640;-70
2022/11/20 02:52:21;;;;;;;;;;;;;;;-0.81;100.00;101056.13;2063279;28;38189;-70
2022/11/20 02:53:23;;;;;;;;;;;;;;;-0.79;100.00;101064.00;2064072;28;33447;-70
2022/11/20 02:54:25;;;;;;;;;;;;;;;-0.80;100.00;101062.25;2063603;28;30808;-70
2022/11/20 02:55:27;;;;;;;;;;;;;;;-0.81;100.00;101061.38;2063974;28;35163;-69
2022/11/20 02:56:29;;;;;;;;;;;;;;;-0.79;100.00;101058.75;2063949;28;19926;-70
2022/11/20 02:57:30;;;;;;;;;;;;;;;-0.79;100.00;101059.66;2063938;28;32449;-69
2022/11/20 02:58:32;;;;;;;;;;;;;;;-0.77;100.00;101057.09;2063477;28;35165;-70
2022/11/20 02:59:33;;;;;;;;;;;;;;;-0.77;100.00;101064.97;2063797;28;36843;-70
2022/11/20 03:00:37;;;;;;;;;;;;;;;-0.78;100.00;101057.91;2062106;28;40399;-70
2022/11/20 03:01:39;;;;;;;;;;;;;;;-0.78;100.00;101056.16;2063648;28;25277;-69
2022/11/20 03:02:40;;;;;;;;;;;;;;;-0.77;100.00;101046.56;2064092;28;25880;-69
2022/11/20 03:03:42;;;;;;;;;;;;;;;-0.78;100.00;101044.78;2063476;28;40027;-69
2022/11/20 03:04:43;;;;;;;;;;;;;;;-0.77;100.00;101047.44;2063417;28;38652;-70
2022/11/20 03:05:45;;;;;;;;;;;;;;;-0.78;100.00;101050.03;2063955;28;36367;-69
2022/11/20 03:06:49;;;;;;;;;;;;;;;-0.77;100.00;101046.56;2063900;28;20860;-69
2022/11/20 03:07:51;;;;;;;;;;;;;;;-0.78;100.00;101040.41;2063946;28;28998;-69
2022/11/20 03:08:52;;;;;;;;;;;;;;;-0.78;100.00;101040.41;2063338;28;38747;-69
2022/11/20 03:09:54;;;;;;;;;;;;;;;-0.78;100.00;101037.78;2063728;28;32800;-69
2022/11/20 03:10:57;;;;;;;;;;;;;;;-0.77;100.00;101036.94;2063261;28;35470;-70
2022/11/20 03:11:59;;;;;;;;;;;;;;;-0.78;100.00;101029.88;2063304;28;39806;-70
2022/11/20 03:13:01;;;;;;;;;;;;;;;-0.78;100.00;101040.41;2063477;28;38166;-70
2022/11/20 03:14:04;;;;;;;;;;;;;;;-0.77;100.00;101041.31;2064294;28;19969;-71
2022/11/20 03:15:06;;;;;;;;;;;;;;;-0.78;100.00;101037.78;2063638;28;30941;-70
2022/11/20 03:16:11;;;;;;;;;;;;;;;-0.77;100.00;101041.31;2063658;28;37920;-69
2022/11/20 03:17:13;;;;;;;;;;;;;;;-0.77;100.00;101031.69;2063283;28;33190;-69
2022/11/20 03:18:14;;;;;;;;;;;;;;;-0.77;100.00;101038.69;2064038;28;30698;-69
2022/11/20 03:19:16;;;;;;;;;;;;;;;-0.78;100.00;101035.13;2064092;28;30343;-70
2022/11/20 03:20:18;;;;;;;;;;;;;;;-0.76;100.00;101040.44;2065130;28;35868;-70
2022/11/20 03:21:19;;;;;;;;;;;;;;;-0.76;100.00;101035.19;2065281;28;19925;-70
2022/11/20 03:22:21;;;;;;;;;;;;;;;-0.77;100.00;101041.31;2064743;28;35345;-70
2022/11/20 03:23:22;;;;;;;;;;;;;;;-0.77;100.00;101031.69;2064904;28;32371;-70
2022/11/20 03:24:24;;;;;;;;;;;;;;;-0.77;100.00;101031.69;2065158;28;28090;-70
2022/11/20 03:25:25;;;;;;;;;;;;;;;-0.78;100.00;101029.88;2064614;28;32974;-70
2022/11/20 03:26:27;;;;;;;;;;;;;;;-0.75;100.00;101022.91;2065253;28;37403;-70
2022/11/20 03:27:33;;;;;;;;;;;;;;;-0.77;100.00;101023.78;2065398;28;33012;-70
2022/11/20 03:28:35;;;;;;;;;;;;;;;-0.75;100.00;101025.56;2064909;28;39424;-70
2022/11/20 03:29:36;;;;;;;;;;;;;;;-0.73;100.00;101022.13;2064771;28;35566;-70
2022/11/20 03:30:38;;;;;;;;;;;;;;;-0.73;100.00;101021.25;2065175;28;30054;-70
2022/11/20 03:31:40;;;;;;;;;;;;;;;-0.73;100.00;101021.25;2064772;28;29336;-70
2022/11/20 03:32:42;;;;;;;;;;;;;;;-0.72;100.00;101017.75;2064872;28;36286;-70
2022/11/20 03:33:44;;;;;;;;;;;;;;;-0.72;100.00;101023.00;2064929;28;26342;-71
2022/11/20 03:34:46;;;;;;;;;;;;;;;-0.72;100.00;101012.50;2064979;28;36521;-70
2022/11/20 03:35:48;;;;;;;;;;;;;;;-0.72;100.00;101015.13;2064755;28;31973;-70
2022/11/20 03:36:49;;;;;;;;;;;;;;;-0.71;100.00;101019.53;2064263;28;40005;-70
2022/11/20 03:37:53;;;;;;;;;;;;;;;-0.72;100.00;101017.75;2064118;28;36094;-70
2022/11/20 03:38:56;;;;;;;;;;;;;;;-0.71;100.00;101022.16;2063995;28;31527;-71
2022/11/20 03:40:00;;;;;;;;;;;;;;;-0.71;100.00;101022.16;2064194;28;36514;-70
2022/11/20 03:41:04;;;;;;;;;;;;;;;-0.71;100.00;101024.78;2064703;28;35561;-70
2022/11/20 03:42:44;;;;;;;;;;;;;;;-0.70;100.00;101011.69;2064296;28;36867;-70
2022/11/20 03:43:27;;;;;;;;;;;;;;;-0.71;100.00;101009.03;2065716;28;19922;-70
2022/11/20 03:44:29;;;;;;;;;;;;;;;-0.70;100.00;101010.78;2064355;28;29713;-70
2022/11/20 03:45:30;;;;;;;;;;;;;;;-0.70;100.00;101005.53;2064465;28;39010;-70
2022/11/20 03:46:32;;;;;;;;;;;;;;;-0.71;100.00;101007.28;2065350;28;19952;-70
2022/11/20 03:47:34;;;;;;;;;;;;;;;-0.71;100.00;100998.50;2064983;28;40080;-70
2022/11/20 03:48:35;;;;;;;;;;;;;;;-0.71;100.00;101001.13;2064329;28;30683;-70
2022/11/20 03:49:37;;;;;;;;;;;;;;;-0.70;100.00;101000.25;2065258;28;31140;-70
2022/11/20 03:50:38;;;;;;;;;;;;;;;-0.69;100.00;100994.16;2065350;28;30268;-70
2022/11/20 03:51:40;;;;;;;;;;;;;;;-0.69;100.00;100988.91;2064477;28;31406;-70
2022/11/20 03:52:42;;;;;;;;;;;;;;;-0.70;100.00;100989.75;2064587;28;32536;-71
2022/11/20 03:53:46;;;;;;;;;;;;;;;-0.70;100.00;100988.03;2064455;28;30777;-70
2022/11/20 03:54:47;;;;;;;;;;;;;;;-0.69;100.00;100991.53;2063931;28;34312;-70
2022/11/20 03:55:52;;;;;;;;;;;;;;;-0.69;100.00;100992.41;2065031;28;36405;-70
2022/11/20 03:56:56;;;;;;;;;;;;;;;-0.68;100.00;100995.94;2064411;28;34247;-71
2022/11/20 03:57:57;;;;;;;;;;;;;;;-0.68;100.00;101002.09;2064880;28;33910;-70
2022/11/20 03:59:00;;;;;;;;;;;;;;;-0.68;100.00;100998.56;2064442;28;38546;-70
2022/11/20 04:00:03;;;;;;;;;;;;;;;-0.69;100.00;101000.31;2065506;28;19933;-69
2022/11/20 04:01:21;;;;;;;;;;;;;;;-0.67;100.00;100997.72;2064019;28;41364;-69
2022/11/20 04:02:23;;;;;;;;;;;;;;;-0.67;100.00;100992.47;2065207;28;32903;-70
2022/11/20 04:03:25;;;;;;;;;;;;;;;-0.68;100.00;100990.66;2064611;28;28880;-70
2022/11/20 04:04:27;;;;;;;;;;;;;;;-0.66;100.00;100989.00;2064799;28;36921;-71
2022/11/20 04:05:28;;;;;;;;;;;;;;;-0.67;100.00;100988.09;2065290;28;19926;-70
2022/11/20 04:06:35;;;;;;;;;;;;;;;-0.67;100.00;100974.94;2064612;28;28775;-69
2022/11/20 04:07:36;;;;;;;;;;;;;;;-0.66;100.00;100983.72;2064917;28;30818;-69
2022/11/20 04:08:39;;;;;;;;;;;;;;;-0.68;100.00;100981.06;2064998;28;26658;-69
2022/11/20 04:09:40;;;;;;;;;;;;;;;-0.67;100.00;100984.56;2064569;28;32981;-69
2022/11/20 04:10:42;;;;;;;;;;;;;;;-0.68;100.00;100988.03;2065171;28;27565;-71
2022/11/20 04:11:43;;;;;;;;;;;;;;;-0.66;100.00;100989.00;2064515;28;39869;-70
2022/11/20 04:12:47;;;;;;;;;;;;;;;-0.69;100.00;100992.41;2064816;28;36831;-70
2022/11/20 04:13:54;;;;;;;;;;;;;;;-0.68;100.00;100991.59;2064631;28;28451;-70
2022/11/20 04:14:56;;;;;;;;;;;;;;;-0.67;100.00;101001.22;2064903;28;32192;-71
2022/11/20 04:16:00;;;;;;;;;;;;;;;-0.67;100.00;101005.59;2064771;28;31736;-70
2022/11/20 04:17:02;;;;;;;;;;;;;;;-0.66;100.00;101004.75;2065042;28;25406;-71
2022/11/20 04:18:04;;;;;;;;;;;;;;;-0.67;100.00;101006.47;2064621;28;34996;-70
2022/11/20 04:19:10;;;;;;;;;;;;;;;-0.65;100.00;101001.28;2064537;28;31218;-70
2022/11/20 04:20:11;;;;;;;;;;;;;;;-0.65;100.00;100998.63;2065557;28;20059;-70
2022/11/20 04:21:13;;;;;;;;;;;;;;;-0.64;100.00;101001.31;2064608;28;35749;-70
2022/11/20 04:22:14;;;;;;;;;;;;;;;-0.64;100.00;101000.44;2063992;28;32513;-70
2022/11/20 04:23:16;;;;;;;;;;;;;;;-0.64;100.00;100995.16;2064848;28;35964;-70
2022/11/20 04:24:18;;;;;;;;;;;;;;;-0.63;100.00;101002.19;2064570;28;33454;-71
2022/11/20 04:25:19;;;;;;;;;;;;;;;-0.65;100.00;100996.00;2065244;28;24299;-70
2022/11/20 04:26:23;;;;;;;;;;;;;;;-0.64;100.00;100995.16;2064527;28;34066;-70
2022/11/20 04:27:25;;;;;;;;;;;;;;;-0.62;100.00;100993.47;2064270;28;34949;-70
2022/11/20 04:28:26;;;;;;;;;;;;;;;-0.62;100.00;101001.34;2065353;28;20829;-70
2022/11/20 04:29:28;;;;;;;;;;;;;;;-0.63;100.00;100995.22;2064593;28;32868;-70
2022/11/20 04:30:30;;;;;;;;;;;;;;;-0.61;100.00;101000.47;2063309;28;28566;-70
2022/11/20 04:31:34;;;;;;;;;;;;;;;-0.62;100.00;100993.47;2063897;28;35944;-70
2022/11/20 04:32:35;;;;;;;;;;;;;;;-0.61;100.00;100995.22;2064075;28;37096;-70
2022/11/20 04:33:38;;;;;;;;;;;;;;;-0.61;100.00;100989.97;2065215;28;19926;-70
2022/11/20 04:34:39;;;;;;;;;;;;;;;-0.61;100.00;100989.97;2065049;28;34793;-70
2022/11/20 04:35:48;;;;;;;;;;;;;;;-0.60;100.00;100991.75;2064547;28;30326;-70
2022/11/20 04:36:50;;;;;;;;;;;;;;;-0.60;100.00;100986.50;2063827;28;37308;-70
2022/11/20 04:37:52;;;;;;;;;;;;;;;-0.60;100.00;100986.50;2062301;28;32006;-69
2022/11/20 04:38:55;;;;;;;;;;;;;;;-0.59;100.00;100994.41;2064117;28;38010;-71
2022/11/20 04:39:57;;;;;;;;;;;;;;;-0.58;100.00;100987.41;2063994;28;35528;-70
2022/11/20 04:41:00;;;;;;;;;;;;;;;-0.58;100.00;100990.03;2064528;28;32413;-70
2022/11/20 04:43:22;;;;;;;;;;;;;;;-0.57;100.00;100978.69;2064615;28;31356;-71
2022/11/20 04:44:24;;;;;;;;;;;;;;;-0.55;100.00;100983.97;2064342;28;35253;-70
2022/11/20 04:45:25;;;;;;;;;;;;;;;-0.56;100.00;100976.94;2064359;28;37184;-70
2022/11/20 04:46:27;;;;;;;;;;;;;;;-0.56;100.00;100979.56;2064386;28;38220;-70
2022/11/20 04:47:29;;;;;;;;;;;;;;;-0.57;100.00;100976.06;2064218;28;34218;-70
2022/11/20 04:48:34;;;;;;;;;;;;;;;-0.56;100.00;100969.03;2064776;28;19922;-70
2022/11/20 04:49:36;;;;;;;;;;;;;;;-0.58;100.00;100969.00;2064680;28;23688;-70
2022/11/20 04:50:40;;;;;;;;;;;;;;;-0.57;100.00;100976.06;2064852;28;19988;-70
2022/11/20 04:51:41;;;;;;;;;;;;;;;-0.55;100.00;100978.72;2064358;28;31844;-70
2022/11/20 04:52:43;;;;;;;;;;;;;;;-0.56;100.00;100975.19;2064048;28;38041;-72
2022/11/20 04:53:45;;;;;;;;;;;;;;;-0.55;100.00;100976.09;2064980;28;19926;-71
2022/11/20 04:54:46;;;;;;;;;;;;;;;-0.56;100.00;100980.44;2064182;28;39185;-71
2022/11/20 04:55:48;;;;;;;;;;;;;;;-0.57;100.00;100981.31;2064696;28;28688;-71
2022/11/20 04:56:50;;;;;;;;;;;;;;;-0.56;100.00;100982.19;2064168;28;38003;-70
2022/11/20 04:57:51;;;;;;;;;;;;;;;-0.59;100.00;100977.75;2064765;28;37020;-70
2022/11/20 04:58:53;;;;;;;;;;;;;;;-0.58;100.00;100979.53;2064805;28;20044;-71
2022/11/20 04:59:55;;;;;;;;;;;;;;;-0.58;100.00;100979.53;2064445;28;31698;-72
2022/11/20 05:01:02;;;;;;;;;;;;;;;-0.56;100.00;100976.94;2064335;28;34684;-72
2022/11/20 05:02:04;;;;;;;;;;;;;;;-0.56;100.00;100975.19;2064105;28;36758;-70
2022/11/20 05:03:06;;;;;;;;;;;;;;;-0.58;100.00;100971.63;2064373;28;30425;-71
2022/11/20 05:04:08;;;;;;;;;;;;;;;-0.59;100.00;100967.25;2064108;28;37873;-70
2022/11/20 05:05:09;;;;;;;;;;;;;;;-0.57;100.00;100978.69;2064188;28;32742;-71
2022/11/20 05:06:15;;;;;;;;;;;;;;;-0.59;100.00;100972.50;2064057;28;37408;-70
2022/11/20 05:07:16;;;;;;;;;;;;;;;-0.59;100.00;100968.13;2064931;28;20000;-71
2022/11/20 05:08:18;;;;;;;;;;;;;;;-0.58;100.00;100969.00;2064157;28;38665;-69
2022/11/20 05:09:20;;;;;;;;;;;;;;;-0.59;100.00;100968.13;2064481;28;19949;-70
2022/11/20 05:10:21;;;;;;;;;;;;;;;-0.60;100.00;100966.34;2063984;28;35503;-71
2022/11/20 05:11:23;;;;;;;;;;;;;;;-0.60;100.00;100970.72;2064442;28;37108;-70
2022/11/20 05:12:25;;;;;;;;;;;;;;;-0.61;100.00;100971.56;2064645;28;19922;-71
2022/11/20 05:13:27;;;;;;;;;;;;;;;-0.62;100.00;100975.06;2064302;28;33048;-71
2022/11/20 05:14:30;;;;;;;;;;;;;;;-0.61;100.00;100963.66;2064816;28;19937;-70
2022/11/20 05:15:32;;;;;;;;;;;;;;;-0.62;100.00;100972.44;2064135;28;33414;-71
2022/11/20 05:16:35;;;;;;;;;;;;;;;-0.62;100.00;100972.44;2064493;28;32721;-70
2022/11/20 05:17:37;;;;;;;;;;;;;;;-0.62;100.00;100975.06;2064484;28;30943;-71
2022/11/20 05:18:41;;;;;;;;;;;;;;;-0.62;100.00;100969.78;2064406;28;29343;-70
2022/11/20 05:19:42;;;;;;;;;;;;;;;-0.63;100.00;100978.53;2064539;28;33993;-71
2022/11/20 05:20:44;;;;;;;;;;;;;;;-0.63;100.00;100976.81;2064249;28;33185;-71
2022/11/20 05:21:46;;;;;;;;;;;;;;;-0.63;100.00;100975.91;2064636;28;38044;-70
2022/11/20 05:22:48;;;;;;;;;;;;;;;-0.62;100.00;100975.06;2071755;28;25504;-70
2022/11/20 05:23:49;;;;;;;;;;;;;;;-0.62;100.00;100972.44;2067098;28;34528;-71
2022/11/20 05:24:51;;;;;;;;;;;;;;;-0.64;100.00;100972.38;2064094;28;34367;-71
2022/11/20 05:25:57;;;;;;;;;;;;;;;-0.63;100.00;100975.91;2064276;28;32771;-70
2022/11/20 05:26:59;;;;;;;;;;;;;;;-0.64;100.00;100967.13;2063986;28;34860;-71